Time;durP1;ratioP1;P1;durP2;ratioP2;P2;SDS_P1;SDS_P2;PMS_P1;PMS_P2;Temp;Humidity;BMP_temperature;BMP_pressure;BME280_temperature;BME280_humidity;BME280_pressure;Samples;Min_cycle;Max_cycle;Signal;HPM_P1;HPM_P2
2024/02/06 00:00:02;;;;;;;0.70;0.70;;;;;;;16.22;29.15;96925.41;4965557;28;20491;-64
2024/02/06 00:02:29;;;;;;;0.60;0.60;;;;;;;16.04;28.81;96907.97;4971247;28;20057;-62
2024/02/06 00:04:55;;;;;;;0.70;0.70;;;;;;;16.16;29.54;96935.44;4984142;28;20053;-64
2024/02/06 00:07:25;;;;;;;0.70;0.70;;;;;;;16.03;29.61;96900.78;4985530;28;20057;-64
2024/02/06 00:10:00;;;;;;;0.70;0.70;;;;;;;16.00;28.80;96884.84;4985320;28;20081;-62
2024/02/06 00:12:27;;;;;;;0.70;0.70;;;;;;;16.40;27.51;96914.91;4981461;28;20116;-62
2024/02/06 00:14:54;;;;;;;0.70;0.70;;;;;;;16.61;27.62;96931.53;4985276;28;20667;-64
2024/02/06 00:17:21;;;;;;;0.70;0.70;;;;;;;16.38;28.12;96902.53;4983731;28;20058;-64
2024/02/06 00:19:47;;;;;;;0.80;0.80;;;;;;;16.24;27.81;96895.06;4983454;28;20062;-65
2024/02/06 00:22:14;;;;;;;0.70;0.70;;;;;;;16.41;27.37;96913.69;4985182;28;20054;-65
2024/02/06 00:24:41;;;;;;;0.70;0.70;;;;;;;16.70;26.76;96933.06;4985150;28;20108;-62
2024/02/06 00:27:08;;;;;;;0.70;0.70;;;;;;;16.91;26.53;96949.66;4983784;28;20062;-62
2024/02/06 00:29:35;;;;;;;0.70;0.70;;;;;;;16.91;26.69;96932.88;4984704;28;20046;-64
2024/02/06 00:32:02;;;;;;;0.75;0.75;;;;;;;16.56;26.97;96906.81;4984920;28;20054;-63
2024/02/06 00:34:29;;;;;;;0.70;0.70;;;;;;;16.96;26.48;96960.41;4984749;28;20403;-63
2024/02/06 00:36:56;;;;;;;0.70;0.70;;;;;;;16.96;26.80;96957.63;4984799;28;20128;-62
2024/02/06 00:39:23;;;;;;;0.80;0.80;;;;;;;16.92;26.26;96928.84;4984586;28;20051;-64
2024/02/06 00:41:49;;;;;;;0.80;0.80;;;;;;;17.25;25.26;96954.09;4982650;28;20042;-64
2024/02/06 00:44:17;;;;;;;0.70;0.70;;;;;;;17.23;25.73;96933.34;4984707;28;20054;-64
2024/02/06 00:46:44;;;;;;;0.70;0.70;;;;;;;17.20;26.46;96939.78;4984821;28;20054;-63
2024/02/06 00:49:10;;;;;;;0.70;0.70;;;;;;;17.05;26.50;96927.13;4984743;28;20054;-64
2024/02/06 00:51:37;;;;;;;0.70;0.70;;;;;;;17.10;26.03;96946.28;4984490;28;20247;-62
2024/02/06 00:54:04;;;;;;;0.77;0.77;;;;;;;17.14;25.92;96963.81;4984526;28;20081;-62
2024/02/06 00:56:31;;;;;;;0.70;0.70;;;;;;;17.32;25.47;96936.44;4983061;28;20510;-63
2024/02/06 00:58:58;;;;;;;0.70;0.70;;;;;;;17.26;26.19;97008.09;4984993;28;20054;-62
2024/02/06 01:01:24;;;;;;;0.70;0.70;;;;;;;17.10;26.54;96935.09;4984703;28;20050;-62
2024/02/06 01:03:51;;;;;;;0.77;0.77;;;;;;;17.13;26.52;96951.03;4984874;28;20058;-62
2024/02/06 01:06:19;;;;;;;0.70;0.70;;;;;;;17.08;26.64;96945.88;4982861;28;20054;-63
2024/02/06 01:08:45;;;;;;;0.70;0.70;;;;;;;17.04;26.52;96947.94;4984768;28;20050;-64
2024/02/06 01:11:12;;;;;;;0.80;0.80;;;;;;;16.81;26.58;96968.13;4982904;28;20452;-62
2024/02/06 01:13:39;;;;;;;0.60;0.60;;;;;;;17.11;26.61;96959.84;4984424;28;20057;-62
2024/02/06 01:16:07;;;;;;;0.70;0.70;;;;;;;16.99;26.90;96956.78;4983059;28;20505;-64
2024/02/06 01:18:34;;;;;;;0.70;0.70;;;;;;;16.65;26.69;96892.34;4984409;28;20677;-63
2024/02/06 01:21:01;;;;;;;0.70;0.70;;;;;;;17.14;26.49;96980.63;4984306;28;20066;-65
2024/02/06 01:23:28;;;;;;;0.73;0.73;;;;;;;17.18;26.60;96992.59;4986968;28;20054;-63
2024/02/06 01:25:54;;;;;;;0.70;0.70;;;;;;;17.14;26.82;96959.03;4986741;28;20054;-62
2024/02/06 01:28:21;;;;;;;0.70;0.70;;;;;;;17.11;26.89;96987.84;4987684;28;20137;-66
2024/02/06 01:30:48;;;;;;;0.80;0.80;;;;;;;16.16;26.67;96820.84;4986757;28;20054;-63
2024/02/06 01:33:15;;;;;;;0.70;0.70;;;;;;;17.01;26.87;96971.94;4988116;28;20056;-64
2024/02/06 01:35:42;;;;;;;0.80;0.80;;;;;;;17.18;27.08;96982.16;4987794;28;20522;-62
2024/02/06 01:38:12;;;;;;;0.70;0.70;;;;;;;17.09;26.85;96972.66;4988313;28;20159;-62
2024/02/06 01:40:41;;;;;;;0.70;0.70;;;;;;;17.06;26.80;96951.91;4988078;28;20062;-63
2024/02/06 01:43:10;;;;;;;0.70;0.70;;;;;;;16.90;25.72;96892.13;4988129;28;20054;-64
2024/02/06 01:45:36;;;;;;;0.73;0.73;;;;;;;16.96;25.64;96885.63;4987656;28;20497;-64
2024/02/06 01:48:04;;;;;;;0.70;0.70;;;;;;;17.17;25.11;96946.19;4988343;28;20050;-65
2024/02/06 01:50:31;;;;;;;0.63;0.63;;;;;;;17.68;24.94;96971.25;4987687;28;20089;-64
2024/02/06 01:52:58;;;;;;;0.70;0.70;;;;;;;17.60;25.67;96972.56;4986355;28;20228;-64
2024/02/06 01:55:25;;;;;;;0.70;0.70;;;;;;;17.48;26.21;96953.50;4987535;28;20061;-63
2024/02/06 01:57:52;;;;;;;0.70;0.70;;;;;;;17.26;26.76;96935.31;4988337;28;20392;-64
2024/02/06 02:00:20;;;;;;;0.70;0.70;;;;;;;17.25;25.68;96933.72;4987697;28;20053;-65
2024/02/06 02:02:47;;;;;;;0.70;0.70;;;;;;;17.32;26.30;96942.03;4988159;28;20050;-62
2024/02/06 02:05:14;;;;;;;0.77;0.77;;;;;;;17.20;26.17;96934.19;4986309;28;20073;-63
2024/02/06 02:07:41;;;;;;;0.70;0.70;;;;;;;17.33;26.41;96946.41;4987254;28;20065;-63
2024/02/06 02:10:08;;;;;;;0.80;0.80;;;;;;;17.22;26.71;96970.94;4987099;28;20108;-65
2024/02/06 02:12:37;;;;;;;0.60;0.60;;;;;;;17.07;26.92;96899.53;4987601;28;20050;-64
2024/02/06 02:15:04;;;;;;;0.70;0.70;;;;;;;17.10;26.76;96935.88;4987292;28;20064;-63
2024/02/06 02:17:31;;;;;;;0.63;0.63;;;;;;;17.15;26.82;96937.44;4987498;28;20065;-62
2024/02/06 02:19:58;;;;;;;0.70;0.70;;;;;;;17.13;26.60;96912.66;4987392;28;20128;-63
2024/02/06 02:22:24;;;;;;;0.77;0.77;;;;;;;16.73;27.24;96876.28;4985778;28;20054;-62
2024/02/06 02:24:52;;;;;;;0.70;0.70;;;;;;;16.93;27.05;96902.47;4987014;28;20050;-63
2024/02/06 02:27:19;;;;;;;0.70;0.70;;;;;;;17.23;25.81;96927.75;4985515;28;20107;-62
2024/02/06 02:29:48;;;;;;;0.60;0.60;;;;;;;17.15;27.09;96910.22;4987131;28;20163;-63
2024/02/06 02:32:16;;;;;;;0.70;0.70;;;;;;;17.16;26.85;96945.41;4987081;28;20065;-63
2024/02/06 02:34:50;;;;;;;0.70;0.70;;;;;;;17.19;26.54;96954.97;4982392;28;20072;-64
2024/02/06 02:37:17;;;;;;;0.80;0.80;;;;;;;17.27;26.65;96923.69;4980818;28;20506;-63
2024/02/06 02:39:43;;;;;;;0.80;0.80;;;;;;;17.28;26.14;96924.47;4986633;28;20133;-62
2024/02/06 02:42:15;;;;;;;0.70;0.70;;;;;;;17.19;26.75;96932.56;4986994;28;20046;-63
2024/02/06 02:44:42;;;;;;;0.70;0.70;;;;;;;17.20;26.67;96917.38;4986806;28;20046;-64
2024/02/06 02:47:09;;;;;;;0.70;0.70;;;;;;;16.90;26.27;96852.94;4986690;28;20054;-63
2024/02/06 02:49:35;;;;;;;0.70;0.70;;;;;;;16.41;27.30;96804.66;4986763;28;20054;-65
2024/02/06 02:52:02;;;;;;;0.73;0.73;;;;;;;17.04;27.63;96936.75;4967148;28;20619;-64
2024/02/06 02:54:29;;;;;;;0.70;0.70;;;;;;;16.96;27.66;96943.63;4967336;28;20051;-64
2024/02/06 02:56:56;;;;;;;0.70;0.70;;;;;;;16.92;27.49;96956.84;4982081;28;20058;-63
2024/02/06 02:59:23;;;;;;;0.70;0.70;;;;;;;16.99;27.39;96948.38;4967018;28;20042;-63
2024/02/06 03:01:50;;;;;;;0.70;0.70;;;;;;;16.51;27.59;96898.88;4981609;28;20054;-64
2024/02/06 03:04:17;;;;;;;0.70;0.70;;;;;;;16.86;27.42;96980.88;4966964;28;20521;-63
2024/02/06 03:06:44;;;;;;;0.70;0.70;;;;;;;16.92;27.33;96979.22;4967373;28;20058;-64
2024/02/06 03:09:15;;;;;;;0.70;0.70;;;;;;;17.11;26.91;97006.63;4981914;28;20066;-65
2024/02/06 03:11:42;;;;;;;0.70;0.70;;;;;;;15.99;27.35;96863.72;4967140;28;20050;-64
2024/02/06 03:14:09;;;;;;;0.70;0.70;;;;;;;17.02;26.83;97023.13;4965477;28;20066;-65
2024/02/06 03:16:37;;;;;;;0.70;0.70;;;;;;;16.97;27.47;97027.16;4966863;28;20055;-64
2024/02/06 03:19:04;;;;;;;0.70;0.70;;;;;;;16.62;27.79;96993.84;4966614;28;20069;-64
2024/02/06 03:21:31;;;;;;;0.70;0.70;;;;;;;16.81;27.60;97040.06;4966683;28;20506;-64
2024/02/06 03:23:58;;;;;;;0.70;0.70;;;;;;;16.91;27.52;97036.41;4981181;28;20054;-62
2024/02/06 03:26:25;;;;;;;0.70;0.70;;;;;;;16.89;27.49;97047.19;4981238;28;20170;-64
2024/02/06 03:28:52;;;;;;;0.75;0.75;;;;;;;16.57;27.56;96997.09;4981329;28;20142;-64
2024/02/06 03:31:18;;;;;;;0.70;0.70;;;;;;;16.57;27.69;97003.47;4966440;28;20058;-64
2024/02/06 03:33:45;;;;;;;0.63;0.63;;;;;;;16.89;27.55;97059.19;4966826;28;20054;-63
2024/02/06 03:36:12;;;;;;;0.70;0.70;;;;;;;16.91;27.71;97050.41;4966203;28;20043;-64
2024/02/06 03:38:39;;;;;;;0.68;0.68;;;;;;;16.82;27.81;97064.06;4966783;28;20051;-64
2024/02/06 03:41:07;;;;;;;0.70;0.70;;;;;;;16.73;28.02;97046.91;4965015;28;20064;-64
2024/02/06 03:43:33;;;;;;;0.70;0.70;;;;;;;16.74;27.83;97060.50;4965085;28;20504;-64
2024/02/06 03:46:01;;;;;;;0.70;0.70;;;;;;;16.76;28.18;97065.66;4965737;28;20050;-63
2024/02/06 03:48:28;;;;;;;0.80;0.80;;;;;;;16.67;28.28;97068.13;4968762;28;20075;-64
2024/02/06 03:50:55;;;;;;;0.70;0.70;;;;;;;16.72;28.19;97087.28;4985484;28;20062;-64
2024/02/06 03:53:21;;;;;;;0.65;0.65;;;;;;;16.46;28.48;97057.88;4984732;28;20050;-64
2024/02/06 03:55:48;;;;;;;0.70;0.70;;;;;;;16.68;28.34;97083.75;4985659;28;20084;-64
2024/02/06 03:58:16;;;;;;;0.60;0.60;;;;;;;16.39;28.57;97058.69;4984228;28;20054;-64
2024/02/06 04:00:49;;;;;;;0.60;0.60;;;;;;;16.38;28.79;97084.25;4984492;28;20056;-62
2024/02/06 04:03:17;;;;;;;;;;;;;;;16.56;28.16;97085.00;4984413;28;20066;-66
2024/02/06 04:05:44;;;;;;;0.70;0.70;;;;;;;16.36;28.52;97095.06;4985421;28;20301;-63
2024/02/06 04:08:11;;;;;;;0.80;0.80;;;;;;;15.89;28.75;97021.00;4985727;28;20046;-64
2024/02/06 04:10:38;;;;;;;0.70;0.70;;;;;;;16.38;28.79;97099.03;4985307;28;20058;-62
2024/02/06 04:13:08;;;;;;;0.70;0.70;;;;;;;16.27;29.15;97095.50;4985342;28;20050;-64
2024/02/06 04:15:35;;;;;;;0.70;0.70;;;;;;;16.12;29.21;97093.16;4983739;28;20046;-64
2024/02/06 04:18:05;;;;;;;0.65;0.65;;;;;;;16.17;29.04;97099.13;4985588;28;20133;-64
2024/02/06 04:20:32;;;;;;;0.60;0.60;;;;;;;16.22;29.09;97086.72;4984482;28;20062;-62
2024/02/06 04:23:00;;;;;;;0.60;0.60;;;;;;;16.08;28.83;97086.78;4984971;28;20054;-63
2024/02/06 04:25:27;;;;;;;0.70;0.70;;;;;;;16.08;28.82;97042.88;4984881;28;20165;-62
2024/02/06 04:27:54;;;;;;;0.70;0.70;;;;;;;16.25;29.02;97081.13;4984965;28;20098;-62
2024/02/06 04:30:21;;;;;;;0.70;0.70;;;;;;;16.26;28.85;97082.72;4984530;28;20058;-63
2024/02/06 04:32:51;;;;;;;0.70;0.70;;;;;;;16.13;28.52;97036.88;4985177;28;20057;-63
2024/02/06 04:35:18;;;;;;;0.70;0.70;;;;;;;16.49;28.59;97096.22;4984762;28;20073;-63
2024/02/06 04:37:45;;;;;;;0.70;0.70;;;;;;;16.26;28.63;97076.34;4983711;28;20050;-63
2024/02/06 04:40:12;;;;;;;0.70;0.70;;;;;;;16.45;28.73;97093.41;4983457;28;20050;-65
2024/02/06 04:42:39;;;;;;;0.70;0.70;;;;;;;16.39;29.15;97081.06;4984761;28;20508;-62
2024/02/06 04:45:06;;;;;;;0.60;0.60;;;;;;;16.15;29.06;97087.56;4984432;28;20050;-62
2024/02/06 04:47:33;;;;;;;0.60;0.60;;;;;;;15.66;29.36;97036.66;4984880;28;20494;-63
2024/02/06 04:50:00;;;;;;;0.70;0.70;;;;;;;15.74;29.49;97050.19;4981199;28;20042;-63
2024/02/06 04:52:27;;;;;;;0.70;0.70;;;;;;;16.01;29.41;97100.78;4965212;28;20083;-63
2024/02/06 04:54:54;;;;;;;0.70;0.70;;;;;;;15.89;29.34;97082.47;4957610;28;20594;-64
2024/02/06 04:57:21;;;;;;;0.68;0.68;;;;;;;15.80;29.14;97075.72;4968309;28;20609;-62
2024/02/06 04:59:47;;;;;;;0.60;0.60;;;;;;;16.08;29.15;97100.75;4967702;28;20437;-62
2024/02/06 05:02:14;;;;;;;0.68;0.68;;;;;;;15.80;29.18;97051.38;4967680;28;20054;-65
2024/02/06 05:04:41;;;;;;;0.60;0.60;;;;;;;15.31;29.47;96987.25;4968621;28;20055;-63
2024/02/06 05:07:08;;;;;;;0.60;0.60;;;;;;;15.84;29.45;97091.25;4967814;28;20125;-64
2024/02/06 05:09:36;;;;;;;0.60;0.60;;;;;;;15.87;29.55;97103.63;4967968;28;20042;-64
2024/02/06 05:12:05;;;;;;;0.70;0.70;;;;;;;15.20;29.69;97036.72;4967928;28;20047;-62
2024/02/06 05:14:32;;;;;;;0.70;0.70;;;;;;;15.41;30.03;97059.06;4967337;28;20081;-65
2024/02/06 05:16:59;;;;;;;0.60;0.60;;;;;;;15.45;29.76;97050.66;4968582;28;20088;-61
2024/02/06 05:19:26;;;;;;;0.70;0.70;;;;;;;15.91;29.57;97099.63;4968442;28;20055;-63
2024/02/06 05:21:53;;;;;;;0.63;0.63;;;;;;;16.00;29.39;97119.53;4968780;28;20334;-62
2024/02/06 05:24:20;;;;;;;0.60;0.60;;;;;;;15.77;29.55;97094.09;4968641;28;20050;-62
2024/02/06 05:26:48;;;;;;;0.60;0.60;;;;;;;15.72;29.94;97116.81;4968244;28;20543;-62
2024/02/06 05:29:15;;;;;;;0.60;0.60;;;;;;;15.52;30.17;97115.69;4968632;28;20058;-63
2024/02/06 05:31:42;;;;;;;0.68;0.68;;;;;;;15.63;29.96;97127.63;4968863;28;20055;-64
2024/02/06 05:34:09;;;;;;;0.60;0.60;;;;;;;15.63;30.03;97133.22;4968564;28;20050;-62
2024/02/06 05:36:36;;;;;;;0.70;0.70;;;;;;;15.59;30.25;97126.00;4968447;28;20134;-65
2024/02/06 05:39:02;;;;;;;0.60;0.60;;;;;;;15.50;30.46;97129.22;4967980;28;20055;-62
2024/02/06 05:41:29;;;;;;;0.60;0.60;;;;;;;15.44;30.61;97122.47;4966960;28;20047;-64
2024/02/06 05:43:56;;;;;;;0.60;0.60;;;;;;;15.38;30.73;97165.09;4968568;28;20560;-62
2024/02/06 05:46:24;;;;;;;0.60;0.60;;;;;;;15.30;30.94;97130.78;4968117;28;20050;-64
2024/02/06 05:48:50;;;;;;;0.60;0.60;;;;;;;15.24;30.96;97126.03;4968529;28;20134;-63
2024/02/06 05:51:18;;;;;;;0.60;0.60;;;;;;;14.91;31.17;97099.28;4980158;28;20100;-64
2024/02/06 05:53:45;;;;;;;0.60;0.60;;;;;;;15.37;30.46;97133.59;4987955;28;20058;-62
2024/02/06 05:56:16;;;;;;;0.60;0.60;;;;;;;15.01;30.76;97059.44;4986762;28;20054;-66
2024/02/06 05:58:44;;;;;;;0.60;0.60;;;;;;;15.53;30.56;97134.00;4986215;28;20437;-68
2024/02/06 06:01:10;;;;;;;0.60;0.60;;;;;;;14.92;30.30;97014.44;4987347;28;20050;-62
2024/02/06 06:03:38;;;;;;;0.60;0.60;;;;;;;15.72;30.25;97136.38;4986029;28;20042;-68
2024/02/06 06:06:05;;;;;;;0.65;0.65;;;;;;;15.67;30.26;97131.19;4987198;28;20068;-69
2024/02/06 06:08:32;;;;;;;0.70;0.70;;;;;;;15.58;30.58;97150.38;4985778;28;20137;-62
2024/02/06 06:10:59;;;;;;;0.60;0.60;;;;;;;15.53;31.08;97136.00;4986874;28;20452;-68
2024/02/06 06:13:26;;;;;;;0.63;0.63;;;;;;;15.48;30.76;97131.63;4987256;28;20050;-63
2024/02/06 06:15:53;;;;;;;0.70;0.70;;;;;;;15.68;30.46;97152.34;4985485;28;20061;-68
2024/02/06 06:18:19;;;;;;;0.60;0.60;;;;;;;15.72;30.70;97147.56;4987345;28;20058;-63
2024/02/06 06:20:46;;;;;;;0.60;0.60;;;;;;;15.80;30.42;97154.72;4986885;28;20054;-62
2024/02/06 06:23:13;;;;;;;0.70;0.70;;;;;;;15.63;30.14;97122.03;4985474;28;20052;-69
2024/02/06 06:25:40;;;;;;;0.70;0.70;;;;;;;15.93;30.35;97150.28;4986351;28;20065;-68
2024/02/06 06:28:08;;;;;;;0.70;0.70;;;;;;;15.53;30.49;97094.13;4986878;28;20440;-61
2024/02/06 06:30:35;;;;;;;0.70;0.70;;;;;;;16.15;30.30;97148.25;4987018;28;20050;-69
2024/02/06 06:33:01;;;;;;;0.70;0.70;;;;;;;16.24;30.19;97146.63;4985581;28;20057;-69
2024/02/06 06:35:28;;;;;;;0.70;0.70;;;;;;;16.34;29.90;97150.59;4986454;28;20184;-69
2024/02/06 06:37:55;;;;;;;0.70;0.70;;;;;;;16.32;30.05;97162.16;4986865;28;20082;-61
2024/02/06 06:40:22;;;;;;;0.70;0.70;;;;;;;16.41;29.93;97156.94;4985178;28;20088;-69
2024/02/06 06:42:48;;;;;;;0.60;0.60;;;;;;;16.45;29.79;97146.56;5001603;28;20078;-69
2024/02/06 06:45:15;;;;;;;0.70;0.70;;;;;;;16.68;29.29;97159.25;5000924;28;20069;-68
2024/02/06 06:47:42;;;;;;;0.75;0.75;;;;;;;16.74;29.25;97157.63;4986833;28;20497;-69
2024/02/06 06:50:09;;;;;;;0.75;0.75;;;;;;;16.82;29.35;97165.56;4986129;28;20148;-69
2024/02/06 06:52:42;;;;;;;0.70;0.70;;;;;;;16.34;29.57;97112.22;4985552;28;20091;-68
2024/02/06 06:55:09;;;;;;;0.70;0.70;;;;;;;16.42;29.90;97119.38;4985881;28;20049;-70
2024/02/06 06:57:42;;;;;;;0.70;0.70;;;;;;;16.54;29.70;97149.72;4986358;28;20086;-62
2024/02/06 07:00:11;;;;;;;0.77;0.77;;;;;;;16.61;28.38;97113.31;4985168;28;20050;-69
2024/02/06 07:02:39;;;;;;;0.60;0.60;;;;;;;17.04;28.93;97157.84;4986943;28;20133;-68
2024/02/06 07:05:10;;;;;;;0.70;0.70;;;;;;;16.90;29.94;97144.72;4986218;28;20161;-61
2024/02/06 07:07:37;;;;;;;0.73;0.73;;;;;;;16.86;30.07;97165.53;4985801;28;20054;-62
2024/02/06 07:10:06;;;;;;;0.77;0.77;;;;;;;16.39;29.87;97058.69;4983962;28;20182;-65
2024/02/06 07:12:33;;;;;;;0.70;0.70;;;;;;;17.04;29.75;97150.22;4984274;28;20054;-65
2024/02/06 07:15:00;;;;;;;0.70;0.70;;;;;;;16.54;29.64;97037.88;4985094;28;20505;-68
2024/02/06 07:17:26;;;;;;;0.70;0.70;;;;;;;16.87;29.40;97070.00;4985503;28;20512;-78
2024/02/06 07:19:53;;;;;;;0.80;0.80;;;;;;;17.49;29.08;97165.13;4983580;28;20109;-72
2024/02/06 07:22:20;;;;;;;0.70;0.70;;;;;;;17.62;29.17;97157.84;4982493;28;20521;-72
2024/02/06 07:24:47;;;;;;;0.80;0.80;;;;;;;17.71;29.16;97177.75;4983404;28;20042;-61
2024/02/06 07:27:14;;;;;;;0.80;0.80;;;;;;;17.64;29.05;97161.03;4983647;28;20096;-71
2024/02/06 07:29:40;;;;;;;0.80;0.80;;;;;;;17.19;29.00;97078.16;4983448;28;20117;-63
2024/02/06 07:32:07;;;;;;;0.80;0.80;;;;;;;17.81;28.84;97171.28;4973166;28;20090;-67
2024/02/06 07:34:34;;;;;;;0.73;0.73;;;;;;;17.61;28.98;97122.59;4981500;28;20744;-62
2024/02/06 07:37:01;;;;;;;0.70;0.70;;;;;;;17.69;28.66;97118.53;4980933;28;20050;-70
2024/02/06 07:39:27;;;;;;;0.80;0.80;;;;;;;17.97;28.85;97169.50;4980446;28;20050;-60
2024/02/06 07:41:54;;;;;;;0.70;0.70;;;;;;;18.10;28.36;97150.94;4982875;28;20605;-59
2024/02/06 07:44:21;;;;;;;0.80;0.80;;;;;;;17.64;28.74;97085.38;4974180;28;20054;-60
2024/02/06 07:46:49;;;;;;;0.70;0.70;;;;;;;17.83;28.43;97107.22;4977596;28;20140;-64
2024/02/06 07:49:16;;;;;;;0.80;0.80;;;;;;;18.08;28.37;97118.94;4965534;28;20195;-67
2024/02/06 07:51:43;;;;;;;0.80;0.80;;;;;;;18.34;28.51;97156.69;4965156;28;20149;-67
2024/02/06 07:54:10;;;;;;;0.70;0.70;;;;;;;18.32;28.59;97123.44;4980426;28;20056;-57
2024/02/06 07:56:38;;;;;;;0.82;0.82;;;;;;;18.39;28.12;97133.81;4974437;28;20070;-68
2024/02/06 07:59:04;;;;;;;0.80;0.80;;;;;;;18.18;27.90;97078.75;4984653;28;20077;-67
2024/02/06 08:01:31;;;;;;;0.80;0.80;;;;;;;18.63;27.90;97136.34;4984771;28;20054;-65
2024/02/06 08:03:58;;;;;;;0.80;0.80;;;;;;;18.64;27.92;97123.88;4980478;28;20073;-67
2024/02/06 08:06:30;;;;;;;0.80;0.80;;;;;;;18.06;27.36;97048.47;4982761;28;20157;-62
2024/02/06 08:08:57;;;;;;;0.85;0.85;;;;;;;18.20;27.59;97025.84;4983848;28;20062;-72
2024/02/06 08:11:24;;;;;;;0.80;0.80;;;;;;;19.13;27.03;97128.00;4984372;28;20046;-61
2024/02/06 08:13:51;;;;;;;0.80;0.80;;;;;;;18.76;26.49;97055.94;4983451;28;20045;-63
2024/02/06 08:16:18;;;;;;;0.90;0.90;;;;;;;19.40;26.32;97132.41;4967593;28;20921;-60
2024/02/06 08:18:45;;;;;;;0.80;0.80;;;;;;;19.30;26.64;97099.66;4963727;28;20568;-64
2024/02/06 08:21:12;;;;;;;0.80;0.80;;;;;;;18.68;26.15;96998.38;4964464;28;20138;-68
2024/02/06 08:23:38;;;;;;;0.88;0.88;;;;;;;19.24;26.47;97087.28;4964455;28;20058;-63
2024/02/06 08:26:06;;;;;;;0.70;0.70;;;;;;;19.57;26.44;97135.38;4970757;28;20246;-65
2024/02/06 08:28:32;;;;;;;0.80;0.80;;;;;;;19.51;26.46;97126.59;4982760;28;20437;-71
2024/02/06 08:31:00;;;;;;;0.90;0.90;;;;;;;19.36;26.60;97103.56;4981934;28;20050;-67
2024/02/06 08:33:29;;;;;;;0.95;0.95;;;;;;;19.47;26.76;97126.66;4973829;28;20046;-61
2024/02/06 08:35:55;;;;;;;0.90;0.90;;;;;;;19.24;27.04;97118.19;4963157;28;20513;-64
2024/02/06 08:38:23;;;;;;;0.90;0.90;;;;;;;19.45;27.08;97133.94;4965030;28;20368;-61
2024/02/06 08:40:50;;;;;;;0.90;0.90;;;;;;;19.47;26.79;97137.13;4963244;28;20053;-64
2024/02/06 08:43:18;;;;;;;0.90;0.90;;;;;;;19.37;26.73;97144.50;4964962;28;20059;-64
2024/02/06 08:45:45;;;;;;;0.90;0.90;;;;;;;19.61;26.78;97150.13;4981204;28;20136;-62
2024/02/06 08:48:12;;;;;;;0.90;0.90;;;;;;;19.73;26.67;97155.16;4984090;28;20140;-64
2024/02/06 08:50:42;;;;;;;0.90;0.90;;;;;;;19.81;26.36;97157.41;4981576;28;20102;-65
2024/02/06 08:53:09;;;;;;;1.00;1.00;;;;;;;19.88;26.71;97145.25;4981091;28;20050;-65
2024/02/06 08:55:36;;;;;;;0.80;0.80;;;;;;;19.90;26.38;97142.81;4981973;28;20513;-64
2024/02/06 08:58:03;;;;;;;0.90;0.90;;;;;;;20.03;26.63;97163.47;4983431;28;20080;-74
2024/02/06 09:00:31;;;;;;;0.90;0.90;;;;;;;19.75;26.63;97119.78;4978307;28;20082;-71
2024/02/06 09:02:57;;;;;;;0.88;0.88;;;;;;;19.52;26.35;97069.97;4962973;28;20102;-69
2024/02/06 09:05:24;;;;;;;1.00;1.00;;;;;;;20.24;26.52;97160.28;4979985;28;20408;-68
2024/02/06 09:07:51;;;;;;;0.90;0.90;;;;;;;18.53;25.98;96864.31;4983929;28;20516;-74
2024/02/06 09:10:19;;;;;;;0.90;0.90;;;;;;;20.30;25.89;97127.59;4972900;28;20429;-71
2024/02/06 09:12:46;;;;;;;0.90;0.90;;;;;;;20.64;26.01;97161.91;4964852;28;20046;-67
2024/02/06 09:15:13;;;;;;;1.00;1.00;;;;;;;20.79;25.58;97160.38;4983195;28;20126;-67
2024/02/06 09:17:39;;;;;;;0.93;0.93;;;;;;;20.53;25.31;97136.00;4983343;28;20042;-66
2024/02/06 09:20:07;;;;;;;0.80;0.80;;;;;;;20.58;25.56;97155.97;4982006;28;20141;-67
2024/02/06 09:22:34;;;;;;;0.80;0.80;;;;;;;20.78;25.20;97153.16;4978728;28;20494;-61
2024/02/06 09:25:01;;;;;;;0.90;0.90;;;;;;;20.69;25.33;97141.69;4979616;28;20513;-61
2024/02/06 09:27:27;;;;;;;0.90;0.90;;;;;;;20.53;25.32;97099.41;4983412;28;20070;-67
2024/02/06 09:34:55;;;;;;;0.90;0.90;;;;;;;;;;5068891;28;20924;-63
2024/02/06 09:37:26;;;;;;;0.90;0.90;;;;;;;;;;5060951;28;20061;-64
2024/02/06 09:39:53;;;;;;;1.00;1.00;;;;;;;;;;5055045;28;20080;-71
2024/02/06 09:42:20;;;;;;;0.80;0.80;;;;;;;;;;5038961;28;20049;-66
2024/02/06 09:44:48;;;;;;;1.00;1.00;;;;;;;;;;5040180;28;20075;-64
2024/02/06 09:47:15;;;;;;;0.90;0.90;;;;;;;;;;5037979;28;20111;-62
2024/02/06 09:49:44;;;;;;;1.00;1.00;;;;;;;;;;5040722;28;20049;-63
2024/02/06 09:52:11;;;;;;;0.95;0.95;;;;;;;;;;5039469;28;20053;-62
2024/02/06 09:54:41;;;;;;;0.80;0.80;;;;;;;;;;5038744;28;20052;-64
2024/02/06 09:57:08;;;;;;;0.90;0.90;;;;;;;;;;5040531;28;20049;-62
2024/02/06 09:59:35;;;;;;;0.80;0.80;;;;;;;;;;5038620;28;20056;-60
2024/02/06 10:02:03;;;;;;;0.90;0.90;;;;;;;;;;5024176;28;20160;-67
2024/02/06 10:04:31;;;;;;;1.00;1.00;;;;;;;;;;5020432;28;20143;-70
2024/02/06 10:06:58;;;;;;;0.95;0.95;;;;;;;;;;5020253;28;20126;-67
2024/02/06 10:09:27;;;;;;;0.85;0.85;;;;;;;;;;5020458;28;20158;-66
2024/02/06 10:11:55;;;;;;;0.90;0.90;;;;;;;;;;5037372;28;20068;-63
2024/02/06 10:14:21;;;;;;;0.82;0.82;;;;;;;;;;5042767;28;20060;-67
2024/02/06 10:16:48;;;;;;;0.90;0.90;;;;;;;;;;5039077;28;20053;-64
2024/02/06 10:19:15;;;;;;;0.90;0.90;;;;;;;;;;5039545;28;20052;-66
2024/02/06 10:21:42;;;;;;;0.80;0.80;;;;;;;;;;5039715;28;20053;-67
2024/02/06 10:24:09;;;;;;;0.80;0.80;;;;;;;;;;5039414;28;20049;-66
2024/02/06 10:26:38;;;;;;;0.80;0.80;;;;;;;;;;5038239;28;20057;-62
2024/02/06 10:29:06;;;;;;;0.90;0.90;;;;;;;;;;5046901;28;20162;-64
2024/02/06 10:31:33;;;;;;;0.88;0.88;;;;;;;;;;5041154;28;20051;-64
2024/02/06 10:34:06;;;;;;;0.90;0.90;;;;;;;;;;5037872;28;20395;-64
2024/02/06 10:36:33;;;;;;;;;;;;;;;;;;5039132;28;20052;-64
2024/02/06 10:38:59;;;;;;;0.90;0.90;;;;;;;;;;5037795;28;19925;-67
2024/02/06 10:41:26;;;;;;;1.05;1.05;;;;;;;;;;5037400;28;20524;-65
2024/02/06 10:44:12;;;;;;;0.80;0.80;;;;;;;;;;5037732;28;20179;-64
2024/02/06 10:46:39;;;;;;;1.13;1.13;;;;;;;;;;5034701;28;20083;-64
2024/02/06 10:49:06;;;;;;;0.93;0.93;;;;;;;;;;5025392;28;20096;-64
2024/02/06 10:51:33;;;;;;;0.90;0.90;;;;;;;;;;5036005;28;20104;-65
2024/02/06 10:54:00;;;;;;;0.90;0.90;;;;;;;;;;5025896;28;20089;-61
2024/02/06 10:56:29;;;;;;;1.20;1.20;;;;;;;;;;5024797;28;20049;-66
2024/02/06 10:58:57;;;;;;;0.93;0.93;;;;;;;;;;5033081;28;20131;-63
2024/02/06 11:01:34;;;;;;;0.90;0.90;;;;;;;;;;5044760;28;20163;-65
2024/02/06 11:04:04;;;;;;;1.00;1.00;;;;;;;;;;5028393;28;20132;-66
2024/02/06 11:06:51;;;;;;;1.00;1.00;;;;;;;;;;5023761;28;20053;-61
2024/02/06 11:09:20;;;;;;;1.10;1.10;;;;;;;;;;5025151;28;20050;-63
2024/02/06 11:11:48;;;;;;;0.90;0.90;;;;;;;;;;5024764;28;20054;-61
2024/02/06 11:14:16;;;;;;;1.00;1.00;;;;;;;;;;5024799;28;20049;-66
2024/02/06 11:16:46;;;;;;;0.93;0.93;;;;;;;;;;5024501;28;20057;-68
2024/02/06 11:19:20;;;;;;;1.08;1.08;;;;;;;;;;5024918;28;20076;-62
2024/02/06 11:21:52;;;;;;;1.08;1.08;;;;;;;;;;5025276;28;20164;-61
2024/02/06 11:24:19;;;;;;;0.90;0.90;;;;;;;;;;5025752;28;20081;-66
2024/02/06 11:26:46;;;;;;;1.08;1.08;;;;;;;;;;5023772;28;20064;-64
2024/02/06 11:29:13;;;;;;;0.90;0.90;;;;;;;;;;5024166;28;20156;-64
2024/02/06 11:31:39;;;;;;;1.00;1.00;;;;;;;;;;5034620;28;20137;-71
2024/02/06 11:34:11;;;;;;;1.10;1.10;;;;;;;;;;5028275;28;20129;-66
2024/02/06 11:36:37;;;;;;;1.02;1.02;;;;;;;;;;5022775;28;20718;-65
2024/02/06 11:39:13;;;;;;;0.95;0.95;;;;;;;;;;5024635;28;20061;-65
2024/02/06 11:41:43;;;;;;;0.90;0.90;;;;;;;;;;5024808;28;20053;-64
2024/02/06 11:44:10;;;;;;;1.00;1.00;;;;;;;;;;5005595;28;20046;-64
2024/02/06 11:46:44;;;;;;;1.00;1.00;;;;;;;;;;5022678;28;20053;-66
2024/02/06 11:49:12;;;;;;;1.00;1.00;;;;;;;;;;5024610;28;20156;-69
2024/02/06 11:51:39;;;;;;;0.90;0.90;;;;;;;;;;5028209;28;20111;-63
2024/02/06 11:54:10;;;;;;;1.00;1.00;;;;;;;;;;5022861;28;20064;-67
2024/02/06 11:56:38;;;;;;;0.95;0.95;;;;;;;;;;5023532;28;20569;-67
2024/02/06 11:59:04;;;;;;;1.00;1.00;;;;;;;;;;5023393;28;20063;-61
2024/02/06 12:01:31;;;;;;;0.90;0.90;;;;;;;;;;5022715;28;20053;-61
2024/02/06 12:04:04;;;;;;;1.00;1.00;;;;;;;;;;5024546;28;20056;-67
2024/02/06 12:06:30;;;;;;;0.90;0.90;;;;;;;;;;5024100;28;20056;-67
2024/02/06 12:09:10;;;;;;;1.08;1.08;;;;;;;;;;5024837;28;20089;-67
2024/02/06 12:11:45;;;;;;;0.85;0.85;;;;;;;;;;5023052;28;20060;-61
2024/02/06 12:14:14;;;;;;;0.90;0.90;;;;;;;;;;5025713;28;20132;-62